createdAt,value
2019-02-15T00:00:42.837Z,5.43
2019-02-15T00:05:44.564Z,5.33
2019-02-15T00:10:46.252Z,5.83
2019-02-15T00:15:47.992Z,5.87
2019-02-15T00:21:04.178Z,5.50
2019-02-15T00:26:05.795Z,5.07
2019-02-15T00:31:09.108Z,5.20
2019-02-15T00:36:10.717Z,5.47
2019-02-15T00:41:12.456Z,5.37
2019-02-15T00:46:32.840Z,5.27
2019-02-15T00:51:49.641Z,5.10
2019-02-15T00:57:08.378Z,5.70
2019-02-15T01:02:16.469Z,4.90
2019-02-15T01:07:49.873Z,5.10
2019-02-15T01:12:55.933Z,4.27
2019-02-15T01:17:57.718Z,5.20
2019-02-15T01:22:59.429Z,4.43
2019-02-15T01:28:06.300Z,4.37
2019-02-15T01:33:18.204Z,4.83
2019-02-15T01:38:48.540Z,4.53
2019-02-15T01:43:54.407Z,4.50
2019-02-15T01:48:55.986Z,4.47
2019-02-15T01:53:57.782Z,4.50
2019-02-15T01:58:59.475Z,5.00
2019-02-15T02:04:01.183Z,4.73
2019-02-15T02:09:04.178Z,4.20
2019-02-15T02:14:05.887Z,4.40
2019-02-15T02:19:07.578Z,4.03
2019-02-15T02:24:09.285Z,4.37
2019-02-15T02:29:10.853Z,4.80
2019-02-15T02:34:12.476Z,4.50
2019-02-15T02:39:14.054Z,4.63
2019-02-15T02:44:15.780Z,4.90
2019-02-15T02:49:17.459Z,4.67
2019-02-15T02:54:19.052Z,4.60
2019-02-15T02:59:20.657Z,5.10
2019-02-15T03:04:22.237Z,4.83
2019-02-15T03:09:23.939Z,5.00
2019-02-15T03:14:25.608Z,4.70
2019-02-15T03:19:27.338Z,4.60
2019-02-15T03:24:29.048Z,4.93
2019-02-15T03:29:30.712Z,4.53
2019-02-15T03:34:32.406Z,4.20
2019-02-15T03:39:46.726Z,4.40
2019-02-15T03:44:48.436Z,4.67
2019-02-15T03:49:50.136Z,8.40
2019-02-15T03:54:51.766Z,5.10
2019-02-15T03:59:53.378Z,5.07
2019-02-15T04:04:55.094Z,4.47
2019-02-15T04:09:56.804Z,4.63
2019-02-15T04:14:58.507Z,6.03
2019-02-15T04:20:00.331Z,5.37
2019-02-15T04:25:01.996Z,4.53
2019-02-15T04:30:04.554Z,4.30
2019-02-15T04:35:06.242Z,4.10
2019-02-15T04:40:08.201Z,4.47
2019-02-15T04:45:10.141Z,4.63
2019-02-15T04:50:11.942Z,4.03
2019-02-15T04:55:13.708Z,4.50
2019-02-15T05:00:15.444Z,4.43
2019-02-15T05:05:17.413Z,4.07
2019-02-15T05:10:19.138Z,4.50
2019-02-15T05:15:20.913Z,4.03
2019-02-15T05:20:22.742Z,4.77
2019-02-15T05:25:24.512Z,4.80
2019-02-15T05:30:26.306Z,4.60
2019-02-15T05:35:28.097Z,6.20
2019-02-15T05:40:29.999Z,6.90
2019-02-15T05:45:31.771Z,10.57
2019-02-15T05:50:33.586Z,11.70
2019-02-15T05:55:35.308Z,7.37
2019-02-15T06:00:37.470Z,6.63
2019-02-15T06:05:39.188Z,5.50
2019-02-15T06:10:40.927Z,5.83
2019-02-15T06:15:42.502Z,6.03
2019-02-15T06:20:44.076Z,5.93
2019-02-15T06:25:45.677Z,6.10
2019-02-15T06:30:47.382Z,5.87
2019-02-15T06:35:49.007Z,5.93
2019-02-15T06:40:50.605Z,5.17
2019-02-15T06:45:52.213Z,5.00
2019-02-15T06:50:53.780Z,6.27
2019-02-15T06:55:55.435Z,5.90
2019-02-15T07:01:05.063Z,5.13
2019-02-15T07:06:06.693Z,4.77
2019-02-15T07:11:08.290Z,4.73
2019-02-15T07:16:09.877Z,5.43
2019-02-15T07:21:11.470Z,5.23
2019-02-15T07:26:13.104Z,6.00
2019-02-15T07:31:14.677Z,5.70
2019-02-15T07:36:16.328Z,5.70
2019-02-15T07:41:18.075Z,4.20
2019-02-15T07:46:19.638Z,3.13
2019-02-15T07:51:21.220Z,3.10
2019-02-15T07:56:22.830Z,3.37
2019-02-15T08:01:24.427Z,3.33
2019-02-15T08:06:26.016Z,3.80
2019-02-15T08:11:27.616Z,3.47
2019-02-15T08:16:29.198Z,3.10
2019-02-15T08:21:30.779Z,4.20
2019-02-15T08:26:32.356Z,3.83
2019-02-15T08:31:33.940Z,3.73
2019-02-15T08:36:35.541Z,3.43
2019-02-15T08:41:37.129Z,3.80
2019-02-15T08:46:38.704Z,3.17
2019-02-15T08:51:40.287Z,3.60
2019-02-15T08:56:41.866Z,3.83
2019-02-15T09:01:45.353Z,3.67
2019-02-15T09:06:47.075Z,3.57
2019-02-15T09:11:48.622Z,3.40
2019-02-15T09:16:50.197Z,2.70
2019-02-15T09:21:51.780Z,3.67
2019-02-15T09:26:53.373Z,3.70
2019-02-15T09:31:54.960Z,4.43
2019-02-15T09:36:56.631Z,3.93
2019-02-15T09:41:58.208Z,3.53
2019-02-15T09:46:59.793Z,3.80
2019-02-15T09:52:01.387Z,3.63
2019-02-15T09:57:03.105Z,3.73
2019-02-15T10:02:04.690Z,3.47
2019-02-15T10:07:06.280Z,3.80
2019-02-15T10:12:07.856Z,3.70
2019-02-15T10:17:09.550Z,3.20
2019-02-15T10:22:11.603Z,4.03
2019-02-15T10:27:13.442Z,3.10
2019-02-15T10:32:15.118Z,3.57
2019-02-15T10:37:16.694Z,2.63
2019-02-15T10:42:18.423Z,3.63
2019-02-15T10:47:25.097Z,3.30
2019-02-15T10:52:23.515Z,2.53
2019-02-15T10:57:25.117Z,2.70
2019-02-15T11:02:26.725Z,2.87
2019-02-15T11:07:28.416Z,2.60
2019-02-15T11:12:30.021Z,2.87
2019-02-15T11:17:31.717Z,3.10
2019-02-15T11:22:33.309Z,2.53
2019-02-15T11:27:34.885Z,3.60
2019-02-15T11:32:36.449Z,2.20
2019-02-15T11:37:38.181Z,2.43
2019-02-15T11:42:39.862Z,2.30
2019-02-15T11:47:41.574Z,2.67
2019-02-15T11:52:43.172Z,2.25
2019-02-15T11:57:44.761Z,2.30
2019-02-15T12:02:46.354Z,1.95
2019-02-15T12:07:47.942Z,2.15
2019-02-15T12:12:49.745Z,2.20
2019-02-15T12:17:51.337Z,2.15
2019-02-15T12:22:52.933Z,2.08
2019-02-15T12:27:54.613Z,2.00
2019-02-15T12:32:56.215Z,2.05
2019-02-15T12:37:58.622Z,1.50
2019-02-15T12:43:00.217Z,1.30
2019-02-15T12:48:01.901Z,1.87
2019-02-15T12:53:03.578Z,1.47
2019-02-15T12:58:05.180Z,1.12
2019-02-15T13:03:06.914Z,1.30
2019-02-15T13:08:08.533Z,1.27
2019-02-15T13:13:10.138Z,1.35
2019-02-15T13:18:11.751Z,1.15
2019-02-15T13:23:13.454Z,1.12
2019-02-15T13:28:15.060Z,1.40
2019-02-15T13:33:17.758Z,1.20
2019-02-15T13:38:19.475Z,1.37
2019-02-15T13:43:21.135Z,1.30
2019-02-15T13:48:22.747Z,1.15
2019-02-15T13:53:24.469Z,1.20
2019-02-15T13:58:26.082Z,1.62
2019-02-15T14:03:27.652Z,1.00
2019-02-15T14:08:29.363Z,1.50
2019-02-15T14:13:30.942Z,1.00
2019-02-15T14:18:32.532Z,0.90
2019-02-15T14:23:34.136Z,1.40
2019-02-15T14:28:35.719Z,1.15
2019-02-15T14:33:37.286Z,0.95
2019-02-15T14:38:38.863Z,1.00
2019-02-15T14:43:40.429Z,0.88
2019-02-15T14:48:42.000Z,0.90
2019-02-15T14:53:43.569Z,0.78
2019-02-15T14:58:45.214Z,0.98
2019-02-15T15:03:47.130Z,0.90
2019-02-15T15:08:48.797Z,1.20
2019-02-15T15:13:50.405Z,0.90
2019-02-15T15:18:52.006Z,1.20
2019-02-15T15:23:53.706Z,1.02
2019-02-15T15:28:55.285Z,1.22
2019-02-15T15:33:56.913Z,1.70
2019-02-15T15:39:32.502Z,1.45
2019-02-15T15:44:34.240Z,1.60
2019-02-15T15:49:35.838Z,1.30
2019-02-15T15:54:37.393Z,6.45
2019-02-15T15:59:38.966Z,2.25
2019-02-15T16:04:40.538Z,6.20
2019-02-15T16:09:42.121Z,4.10
2019-02-15T16:14:43.695Z,2.73
2019-02-15T16:19:49.488Z,2.50
2019-02-15T16:24:48.763Z,2.67
2019-02-15T16:29:50.543Z,2.63
2019-02-15T16:34:52.164Z,3.50
2019-02-15T16:39:53.768Z,2.80
2019-02-15T16:44:55.479Z,2.53
2019-02-15T16:49:57.051Z,3.83
2019-02-15T16:54:58.653Z,3.87
2019-02-15T17:00:00.235Z,3.57
2019-02-15T17:05:01.819Z,3.50
2019-02-15T17:10:04.178Z,4.10
2019-02-15T17:15:06.983Z,4.53
2019-02-15T17:20:08.923Z,5.50
2019-02-15T17:25:10.787Z,5.27
2019-02-15T17:30:12.399Z,4.87
2019-02-15T17:35:13.999Z,7.33
2019-02-15T17:40:15.814Z,8.00
2019-02-15T17:45:17.410Z,7.97
2019-02-15T17:50:19.035Z,8.97
2019-02-15T17:55:20.630Z,10.13
2019-02-15T18:00:26.055Z,10.30
2019-02-15T18:05:28.593Z,10.13
2019-02-15T18:10:30.305Z,11.30
2019-02-15T18:15:32.116Z,12.10
2019-02-15T18:20:33.725Z,10.10
2019-02-15T18:25:35.561Z,9.00
2019-02-15T18:30:37.250Z,7.30
2019-02-15T18:35:39.012Z,7.13
2019-02-15T18:40:40.612Z,8.43
2019-02-15T18:45:42.214Z,8.97
2019-02-15T18:50:43.802Z,12.13
2019-02-15T18:55:45.501Z,11.87
2019-02-15T19:00:47.113Z,9.20
2019-02-15T19:05:48.718Z,7.70
2019-02-15T19:10:50.356Z,7.80
2019-02-15T19:15:51.971Z,7.90
2019-02-15T19:20:53.679Z,6.50
2019-02-15T19:25:55.383Z,5.77
2019-02-15T19:30:57.133Z,5.53
2019-02-15T19:35:58.837Z,5.03
2019-02-15T19:41:00.754Z,4.20
2019-02-15T19:46:02.342Z,4.40
2019-02-15T19:51:03.937Z,4.67
2019-02-15T19:56:05.605Z,7.77
2019-02-15T20:01:07.178Z,5.43
2019-02-15T20:06:08.753Z,4.87
2019-02-15T20:11:10.324Z,4.40
2019-02-15T20:16:11.894Z,5.30
2019-02-15T20:21:13.569Z,6.37
2019-02-15T20:26:15.120Z,6.77
2019-02-15T20:31:16.710Z,7.03
2019-02-15T20:36:18.319Z,10.43
2019-02-15T20:41:19.877Z,7.80
2019-02-15T20:46:21.448Z,7.27
2019-02-15T20:51:23.152Z,7.37
2019-02-15T20:56:24.721Z,7.43
2019-02-15T21:01:26.294Z,8.97
2019-02-15T21:06:30.030Z,7.47
2019-02-15T21:11:31.613Z,7.40
2019-02-15T21:16:33.163Z,6.70
2019-02-15T21:21:34.729Z,5.93
2019-02-15T21:26:36.313Z,6.50
2019-02-15T21:31:37.873Z,6.17
2019-02-15T21:36:39.553Z,6.00
2019-02-15T21:41:41.115Z,6.10
2019-02-15T21:46:42.678Z,5.47
2019-02-15T21:51:44.343Z,6.00
2019-02-15T21:56:45.911Z,5.87
2019-02-15T22:01:47.602Z,6.70
2019-02-15T22:06:49.156Z,5.93
2019-02-15T22:11:50.733Z,5.23
2019-02-15T22:16:52.301Z,5.23
2019-02-15T22:21:53.878Z,5.70
2019-02-15T22:26:55.454Z,5.53
2019-02-15T22:31:57.045Z,5.43
2019-02-15T22:36:58.629Z,6.07
2019-02-15T22:42:00.197Z,6.53
2019-02-15T22:47:01.768Z,6.40
2019-02-15T22:52:03.335Z,5.37
2019-02-15T22:57:04.906Z,5.77
2019-02-15T23:02:07.160Z,6.10
2019-02-15T23:07:08.835Z,5.57
2019-02-15T23:12:10.501Z,5.73
2019-02-15T23:17:12.169Z,5.23
2019-02-15T23:22:13.748Z,5.77
2019-02-15T23:27:15.318Z,5.10
2019-02-15T23:32:16.922Z,5.60
2019-02-15T23:37:18.449Z,5.63
2019-02-15T23:42:20.016Z,5.70
2019-02-15T23:47:21.573Z,5.83
2019-02-15T23:52:23.162Z,5.70
2019-02-15T23:57:24.737Z,5.70
